createdAt,value
2024-03-22T00:02:23.541Z,100591.61
2024-03-22T00:04:50.600Z,100589.44
2024-03-22T00:07:18.050Z,100583.27
2024-03-22T00:09:45.058Z,100584.35
2024-03-22T00:12:12.110Z,100586.16
2024-03-22T00:14:39.287Z,100585.44
2024-03-22T00:17:06.249Z,100587.95
2024-03-22T00:19:33.247Z,100585.48
2024-03-22T00:22:00.250Z,100579.92
2024-03-22T00:24:27.396Z,100582.99
2024-03-22T00:26:54.500Z,100581.42
2024-03-22T00:29:21.756Z,100586.50
2024-03-22T00:31:48.734Z,100581.14
2024-03-22T00:34:15.999Z,100581.36
2024-03-22T00:36:43.003Z,100582.07
2024-03-22T00:39:10.290Z,100585.91
2024-03-22T00:41:37.350Z,100584.40
2024-03-22T00:44:04.579Z,100588.66
2024-03-22T00:46:31.960Z,100600.77
2024-03-22T00:48:59.185Z,100590.23
2024-03-22T00:51:27.061Z,100592.56
2024-03-22T00:53:54.236Z,100598.18
2024-03-22T00:56:21.390Z,100596.02
2024-03-22T00:58:48.374Z,100593.23
2024-03-22T01:01:15.595Z,100597.05
2024-03-22T01:03:42.587Z,100595.44
2024-03-22T01:06:10.027Z,100594.55
2024-03-22T01:08:37.012Z,100595.61
2024-03-22T01:11:04.361Z,100589.63
2024-03-22T01:13:34.123Z,100591.95
2024-03-22T01:16:02.784Z,100589.86
2024-03-22T01:18:29.797Z,100583.55
2024-03-22T01:20:56.944Z,100584.16
2024-03-22T01:23:23.986Z,100585.29
2024-03-22T01:25:51.044Z,100582.97
2024-03-22T01:28:18.145Z,100581.91
2024-03-22T01:30:45.446Z,100578.81
2024-03-22T01:33:12.393Z,100579.77
2024-03-22T01:35:39.888Z,100578.37
2024-03-22T01:38:06.917Z,100576.51
2024-03-22T01:40:33.931Z,100575.38
2024-03-22T01:43:01.504Z,100570.17
2024-03-22T01:45:32.514Z,100560.63
2024-03-22T01:48:00.894Z,100559.77
2024-03-22T01:50:28.463Z,100558.50
2024-03-22T01:52:56.010Z,100549.39
2024-03-22T01:55:24.285Z,100547.27
2024-03-22T01:57:53.419Z,100545.78
2024-03-22T02:00:20.658Z,100545.64
2024-03-22T02:02:47.697Z,100546.80
2024-03-22T02:05:19.582Z,100547.32
2024-03-22T02:07:46.905Z,100541.80
2024-03-22T02:10:14.994Z,100541.25
2024-03-22T02:12:42.393Z,100537.53
2024-03-22T02:15:09.938Z,100537.19
2024-03-22T02:17:37.099Z,100536.34
2024-03-22T02:20:08.338Z,100537.75
2024-03-22T02:22:35.602Z,100533.80
2024-03-22T02:25:02.774Z,100536.92
2024-03-22T02:27:29.874Z,100534.45
2024-03-22T02:29:58.019Z,100534.95
2024-03-22T02:32:25.174Z,100535.54
2024-03-22T02:35:00.442Z,100540.99
2024-03-22T02:37:29.178Z,100535.97
2024-03-22T02:39:56.129Z,100539.73
2024-03-22T02:42:23.293Z,100543.83
2024-03-22T02:44:50.251Z,100541.95
2024-03-22T02:47:17.461Z,100537.83
2024-03-22T02:49:45.512Z,100535.06
2024-03-22T02:52:12.558Z,100538.23
2024-03-22T02:54:39.557Z,100531.64
2024-03-22T02:57:06.640Z,100532.61
2024-03-22T02:59:33.647Z,100538.59
2024-03-22T03:02:00.803Z,100534.67
2024-03-22T03:04:27.915Z,100536.83
2024-03-22T03:06:57.742Z,100533.81
2024-03-22T03:09:24.724Z,100530.08
2024-03-22T03:11:51.719Z,100531.61
2024-03-22T03:14:18.930Z,100524.75
2024-03-22T03:16:45.893Z,100523.14
2024-03-22T03:19:12.991Z,100527.64
2024-03-22T03:21:39.950Z,100527.39
2024-03-22T03:24:09.676Z,100530.73
2024-03-22T03:26:36.928Z,100529.00
2024-03-22T03:29:03.992Z,100529.21
2024-03-22T03:31:31.698Z,100521.36
2024-03-22T03:33:59.350Z,100515.16
2024-03-22T03:36:26.411Z,100513.15
2024-03-22T03:38:53.469Z,100513.66
2024-03-22T03:41:20.510Z,100511.63
2024-03-22T03:43:47.651Z,100510.84
2024-03-22T03:46:14.745Z,100512.92
2024-03-22T03:48:41.752Z,100516.36
2024-03-22T03:51:08.987Z,100513.70
2024-03-22T03:53:36.049Z,100511.13
2024-03-22T03:56:03.326Z,100518.59
2024-03-22T03:58:30.471Z,100516.05
2024-03-22T04:00:57.714Z,100515.68
2024-03-22T04:03:24.868Z,100511.16
2024-03-22T04:05:58.880Z,100509.39
2024-03-22T04:08:26.951Z,100509.91
2024-03-22T04:10:57.333Z,100513.55
2024-03-22T04:13:25.895Z,100509.99
2024-03-22T04:15:57.438Z,100514.84
2024-03-22T04:18:24.416Z,100518.64
2024-03-22T04:20:59.635Z,100520.16
2024-03-22T04:23:26.661Z,100515.73
2024-03-22T04:25:59.353Z,100517.26
2024-03-22T04:28:30.166Z,100521.76
2024-03-22T04:30:59.407Z,100515.13
2024-03-22T04:33:27.739Z,100519.59
2024-03-22T04:35:56.759Z,100519.54
2024-03-22T04:38:25.024Z,100514.63
2024-03-22T04:40:52.338Z,100508.55
2024-03-22T04:43:19.467Z,100508.45
2024-03-22T04:45:47.839Z,100503.95
2024-03-22T04:48:17.954Z,100506.09
2024-03-22T04:50:46.004Z,100509.99
2024-03-22T04:53:13.064Z,100510.58
2024-03-22T04:55:45.190Z,100512.20
2024-03-22T04:58:17.689Z,100513.95
2024-03-22T05:00:45.956Z,100514.09
2024-03-22T05:03:13.511Z,100515.63
2024-03-22T05:05:41.181Z,100521.38
2024-03-22T05:08:08.937Z,100520.80
2024-03-22T05:10:36.112Z,100521.42
2024-03-22T05:13:03.463Z,100522.02
2024-03-22T05:15:30.484Z,100521.91
2024-03-22T05:17:58.805Z,100516.52
2024-03-22T05:20:26.539Z,100516.70
2024-03-22T05:22:53.745Z,100519.91
2024-03-22T05:25:21.063Z,100517.14
2024-03-22T05:27:48.075Z,100518.05
2024-03-22T05:30:15.073Z,100511.64
2024-03-22T05:32:42.228Z,100512.00
2024-03-22T05:35:09.643Z,100506.89
2024-03-22T05:37:36.803Z,100517.48
2024-03-22T05:40:05.327Z,100519.32
2024-03-22T05:42:32.562Z,100516.05
2024-03-22T05:44:59.616Z,100515.64
2024-03-22T05:47:34.191Z,100520.29
2024-03-22T05:50:09.386Z,100523.44
2024-03-22T05:52:36.479Z,100527.19
2024-03-22T05:55:04.155Z,100526.34
2024-03-22T05:57:31.186Z,100526.13
2024-03-22T05:59:58.525Z,100528.03
2024-03-22T06:02:25.568Z,100531.63
2024-03-22T06:04:54.264Z,100534.28
2024-03-22T06:07:21.465Z,100529.65
2024-03-22T06:09:49.207Z,100532.46
2024-03-22T06:12:16.666Z,100531.04
2024-03-22T06:14:44.715Z,100526.27
2024-03-22T06:17:12.056Z,100523.95
2024-03-22T06:19:39.075Z,100530.04
2024-03-22T06:22:08.396Z,100528.09
2024-03-22T06:24:37.265Z,100526.25
2024-03-22T06:27:04.556Z,100531.40
2024-03-22T06:29:31.556Z,100528.08
2024-03-22T06:31:58.640Z,100528.17
2024-03-22T06:34:25.991Z,100532.39
2024-03-22T06:36:53.061Z,100529.05
2024-03-22T06:39:20.247Z,100527.50
2024-03-22T06:41:47.373Z,100523.63
2024-03-22T06:44:14.508Z,100520.17
2024-03-22T06:46:41.692Z,100520.08
2024-03-22T06:49:08.933Z,100516.38
2024-03-22T06:51:36.900Z,100516.30
2024-03-22T06:54:03.955Z,100514.66
2024-03-22T06:56:31.060Z,100520.21
2024-03-22T06:58:58.792Z,100517.59
2024-03-22T07:01:25.755Z,100513.39
2024-03-22T07:03:53.501Z,100512.80
2024-03-22T07:06:20.920Z,100516.14
2024-03-22T07:08:47.994Z,100512.81
2024-03-22T07:11:14.907Z,100508.80
2024-03-22T07:13:41.830Z,100506.44
2024-03-22T07:16:09.006Z,100505.20
2024-03-22T07:18:37.086Z,100500.13
2024-03-22T07:21:04.656Z,100497.27
2024-03-22T07:23:31.684Z,100490.88
2024-03-22T07:25:59.841Z,100487.49
2024-03-22T07:28:27.072Z,100487.77
2024-03-22T07:30:55.728Z,100486.98
2024-03-22T07:33:22.869Z,100495.70
2024-03-22T07:35:49.933Z,100497.67
2024-03-22T07:38:17.024Z,100498.21
2024-03-22T07:40:44.236Z,100497.76
2024-03-22T07:43:11.865Z,100503.02
2024-03-22T07:45:39.315Z,100500.40
2024-03-22T07:48:06.977Z,100497.27
2024-03-22T07:50:33.954Z,100497.88
2024-03-22T07:53:01.017Z,100494.83
2024-03-22T07:55:28.025Z,100492.73
2024-03-22T07:57:55.230Z,100495.27
2024-03-22T08:00:22.258Z,100492.47
2024-03-22T08:02:49.260Z,100490.25
2024-03-22T08:05:16.429Z,100484.86
2024-03-22T08:07:43.982Z,100485.89
2024-03-22T08:10:11.006Z,100483.01
2024-03-22T08:12:38.214Z,100478.27
2024-03-22T08:15:06.069Z,100477.64
2024-03-22T08:17:33.219Z,100473.33
2024-03-22T08:20:00.374Z,100462.71
2024-03-22T08:22:27.472Z,100456.92
2024-03-22T08:24:56.469Z,100456.78
2024-03-22T08:27:23.562Z,100443.00
2024-03-22T08:29:50.913Z,100442.45
2024-03-22T08:32:18.051Z,100444.49
2024-03-22T08:34:46.093Z,100439.56
2024-03-22T08:37:13.264Z,100438.86
2024-03-22T08:39:41.421Z,100433.38
2024-03-22T08:42:09.653Z,100433.46
2024-03-22T08:44:38.400Z,100433.35
2024-03-22T08:47:05.988Z,100425.60
2024-03-22T08:49:33.247Z,100420.75
2024-03-22T08:52:01.562Z,100417.53
2024-03-22T08:54:28.871Z,100411.35
2024-03-22T08:56:56.390Z,100403.14
2024-03-22T08:59:25.126Z,100401.00
2024-03-22T09:01:52.351Z,100397.27
2024-03-22T09:04:22.168Z,100389.08
2024-03-22T09:06:49.118Z,100388.67
2024-03-22T09:09:17.456Z,100383.36
2024-03-22T09:11:44.496Z,100374.60
2024-03-22T09:14:12.129Z,100372.51
2024-03-22T09:16:39.193Z,100369.16
2024-03-22T09:19:07.678Z,100373.04
2024-03-22T09:21:35.870Z,100372.00
2024-03-22T09:24:04.107Z,100371.34
2024-03-22T09:26:35.486Z,100378.52
2024-03-22T09:29:04.047Z,100376.42
2024-03-22T09:31:33.990Z,100374.25
2024-03-22T09:34:01.660Z,100371.44
2024-03-22T09:36:31.988Z,100368.83
2024-03-22T09:38:59.210Z,100369.52
2024-03-22T09:41:26.371Z,100369.91
2024-03-22T09:43:57.887Z,100371.02
2024-03-22T09:46:25.696Z,100366.42
2024-03-22T09:48:54.899Z,100359.52
2024-03-22T09:51:22.250Z,100363.95
2024-03-22T09:53:50.688Z,100359.23
2024-03-22T09:56:21.126Z,100363.40
2024-03-22T09:58:50.005Z,100359.92
2024-03-22T10:01:17.890Z,100359.30
2024-03-22T10:03:45.238Z,100358.20
2024-03-22T10:06:12.264Z,100357.80
2024-03-22T10:08:39.344Z,100351.16
2024-03-22T10:11:06.324Z,100342.45
2024-03-22T10:13:33.583Z,100344.37
2024-03-22T10:16:00.599Z,100340.48
2024-03-22T10:18:27.753Z,100337.96
2024-03-22T10:21:05.422Z,100335.77
2024-03-22T10:23:32.775Z,100339.32
2024-03-22T10:26:01.096Z,100335.17
2024-03-22T10:28:28.702Z,100330.09
2024-03-22T10:30:56.039Z,100330.34
2024-03-22T10:33:23.974Z,100329.02
2024-03-22T10:35:54.402Z,100320.59
2024-03-22T10:38:22.272Z,100318.55
2024-03-22T10:40:49.773Z,100318.19
2024-03-22T10:43:17.348Z,100316.31
2024-03-22T10:45:57.573Z,100314.08
2024-03-22T10:48:28.819Z,100314.38
2024-03-22T10:51:02.183Z,100310.14
2024-03-22T10:53:33.158Z,100308.48
2024-03-22T10:56:03.113Z,100300.50
2024-03-22T10:58:30.441Z,100300.09
2024-03-22T11:00:57.854Z,100298.14
2024-03-22T11:03:27.292Z,100289.15
2024-03-22T11:05:57.041Z,100282.16
2024-03-22T11:08:25.748Z,100282.48
2024-03-22T11:10:54.157Z,100283.40
2024-03-22T11:13:21.700Z,100276.77
2024-03-22T11:15:52.147Z,100277.31
2024-03-22T11:18:19.130Z,100273.60
2024-03-22T11:20:46.328Z,100274.56
2024-03-22T11:23:13.831Z,100266.29
2024-03-22T11:25:41.128Z,100263.88
2024-03-22T11:28:09.609Z,100262.22
2024-03-22T11:30:38.523Z,100255.77
2024-03-22T11:33:08.604Z,100250.90
2024-03-22T11:35:35.739Z,100245.39
2024-03-22T11:38:05.042Z,100238.77
2024-03-22T11:40:34.381Z,100229.78
2024-03-22T11:43:04.150Z,100229.75
2024-03-22T11:45:33.907Z,100225.96
2024-03-22T11:48:05.975Z,100221.59
2024-03-22T11:50:33.356Z,100211.91
2024-03-22T11:53:00.558Z,100210.61
2024-03-22T11:55:28.346Z,100202.30
2024-03-22T11:57:58.759Z,100201.96
2024-03-22T12:00:44.474Z,100191.02
2024-03-22T12:03:13.524Z,100185.21
2024-03-22T12:05:41.137Z,100183.29
2024-03-22T12:08:08.259Z,100179.01
2024-03-22T12:10:35.250Z,100182.39
2024-03-22T12:13:02.243Z,100173.26
2024-03-22T12:15:29.209Z,100168.70
2024-03-22T12:17:56.255Z,100165.98
2024-03-22T12:20:23.457Z,100163.41
2024-03-22T12:22:50.497Z,100159.98
2024-03-22T12:25:17.910Z,100154.48
2024-03-22T12:27:47.421Z,100147.65
2024-03-22T12:30:14.551Z,100143.20
2024-03-22T12:32:43.876Z,100140.67
2024-03-22T12:35:11.704Z,100136.68
2024-03-22T12:37:38.955Z,100134.45
2024-03-22T12:40:08.870Z,100128.41
2024-03-22T12:42:36.068Z,100124.96
2024-03-22T12:45:03.475Z,100121.64
2024-03-22T12:47:30.767Z,100119.16
2024-03-22T12:49:57.764Z,100120.10
2024-03-22T12:52:25.530Z,100117.70
2024-03-22T12:54:52.611Z,100116.83
2024-03-22T12:57:19.618Z,100110.35
2024-03-22T12:59:47.030Z,100109.21
2024-03-22T13:02:14.215Z,100114.16
2024-03-22T13:04:41.220Z,100106.26
2024-03-22T13:07:09.677Z,100102.37
2024-03-22T13:09:36.775Z,100100.27
2024-03-22T13:12:07.288Z,100095.97
2024-03-22T13:14:35.048Z,100095.14
2024-03-22T13:17:02.197Z,100093.77
2024-03-22T13:19:29.250Z,100093.39
2024-03-22T13:21:56.398Z,100087.77
2024-03-22T13:24:23.329Z,100078.52
2024-03-22T13:26:50.498Z,100077.33
2024-03-22T13:29:17.556Z,100071.25
2024-03-22T13:31:50.805Z,100069.19
2024-03-22T13:34:18.881Z,100069.36
2024-03-22T13:36:46.064Z,100060.21
2024-03-22T13:39:16.193Z,100057.30
2024-03-22T13:41:43.247Z,100051.08
2024-03-22T13:44:10.313Z,100048.02
2024-03-22T13:46:41.730Z,100042.20
2024-03-22T13:49:18.703Z,100034.08
2024-03-22T13:51:46.690Z,100032.08
2024-03-22T13:54:14.552Z,100025.61
2024-03-22T13:56:42.548Z,100021.35
2024-03-22T13:59:13.756Z,100020.27
2024-03-22T14:01:42.251Z,100015.52
2024-03-22T14:04:11.247Z,100014.07
2024-03-22T14:06:39.248Z,100011.11
2024-03-22T14:09:10.609Z,100012.41
2024-03-22T14:11:38.004Z,100013.40
2024-03-22T14:14:05.277Z,100012.63
2024-03-22T14:16:32.239Z,100008.64
2024-03-22T14:18:59.424Z,100010.14
2024-03-22T14:21:27.451Z,100008.82
2024-03-22T14:23:55.827Z,100005.86
2024-03-22T14:26:24.160Z,100002.00
2024-03-22T14:28:51.494Z,99998.44
2024-03-22T14:31:19.888Z,99997.77
2024-03-22T14:33:47.049Z,99996.07
2024-03-22T14:36:14.230Z,99991.89
2024-03-22T14:38:41.261Z,99987.87
2024-03-22T14:41:08.255Z,99983.66
2024-03-22T14:43:35.485Z,99980.07
2024-03-22T14:46:05.518Z,99976.20
2024-03-22T14:48:32.587Z,99976.45
2024-03-22T14:50:59.733Z,99972.52
2024-03-22T14:53:27.160Z,99969.34
2024-03-22T14:56:05.870Z,99970.00
2024-03-22T14:58:33.167Z,99963.64
2024-03-22T15:01:02.976Z,99961.80
2024-03-22T15:03:31.355Z,99956.90
2024-03-22T15:06:00.200Z,99958.10
2024-03-22T15:08:28.742Z,99953.91
2024-03-22T15:10:56.187Z,99953.00
2024-03-22T15:13:23.278Z,99944.27
2024-03-22T15:15:55.395Z,99938.67
2024-03-22T15:18:23.227Z,99936.21
2024-03-22T15:20:52.012Z,99932.00
2024-03-22T15:23:20.783Z,99933.33
2024-03-22T15:25:49.186Z,99931.27
2024-03-22T15:28:16.453Z,99927.63
2024-03-22T15:30:45.500Z,99927.58
2024-03-22T15:33:13.442Z,99921.52
2024-03-22T15:35:42.214Z,99916.80
2024-03-22T15:38:09.440Z,99913.26
2024-03-22T15:40:37.153Z,99912.06
2024-03-22T15:43:08.678Z,99901.20
2024-03-22T15:45:38.719Z,99896.20
2024-03-22T15:48:08.475Z,99894.95
2024-03-22T15:50:36.507Z,99893.20
2024-03-22T15:53:04.025Z,99891.89
2024-03-22T15:55:30.981Z,99891.39
2024-03-22T15:57:58.310Z,99889.40
2024-03-22T16:00:26.760Z,99888.76
2024-03-22T16:02:54.317Z,99882.62
2024-03-22T16:05:21.453Z,99878.73
2024-03-22T16:07:49.055Z,99871.96
2024-03-22T16:10:16.713Z,99866.53
2024-03-22T16:12:44.027Z,99866.89
2024-03-22T16:15:13.180Z,99867.12
2024-03-22T16:17:42.538Z,99866.66
2024-03-22T16:20:11.658Z,99864.80
2024-03-22T16:22:39.320Z,99863.36
2024-03-22T16:25:07.157Z,99859.06
2024-03-22T16:27:34.536Z,99857.19
2024-03-22T16:30:02.077Z,99851.35
2024-03-22T16:32:29.824Z,99856.09
2024-03-22T16:34:56.845Z,99851.80
2024-03-22T16:37:23.967Z,99855.27
2024-03-22T16:39:51.007Z,99856.71
2024-03-22T16:42:18.206Z,99855.61
2024-03-22T16:44:45.303Z,99848.50
2024-03-22T16:47:18.806Z,99852.72
2024-03-22T16:49:48.961Z,99853.43
2024-03-22T16:52:16.076Z,99854.02
2024-03-22T16:54:43.622Z,99860.07
2024-03-22T16:57:11.140Z,99856.23
2024-03-22T16:59:38.301Z,99851.33
2024-03-22T17:02:06.099Z,99851.79
2024-03-22T17:04:33.181Z,99850.46
2024-03-22T17:07:00.595Z,99848.62
2024-03-22T17:09:27.636Z,99843.02
2024-03-22T17:11:54.954Z,99840.44
2024-03-22T17:14:22.174Z,99838.88
2024-03-22T17:16:50.937Z,99840.02
2024-03-22T17:19:21.247Z,99839.48
2024-03-22T17:21:48.928Z,99841.45
2024-03-22T17:24:16.134Z,99837.98
2024-03-22T17:26:46.433Z,99839.33
2024-03-22T17:29:13.398Z,99837.27
2024-03-22T17:31:40.550Z,99829.70
2024-03-22T17:34:08.946Z,99826.77
2024-03-22T17:36:36.671Z,99830.52
2024-03-22T17:39:04.836Z,99834.23
2024-03-22T17:41:31.904Z,99829.36
2024-03-22T17:43:59.004Z,99828.79
2024-03-22T17:46:26.018Z,99824.33
2024-03-22T17:48:54.434Z,99821.95
2024-03-22T17:51:21.807Z,99820.76
2024-03-22T17:53:49.178Z,99815.65
2024-03-22T17:56:18.097Z,99813.58
2024-03-22T17:58:45.113Z,99813.59
2024-03-22T18:01:13.046Z,99811.38
2024-03-22T18:03:40.261Z,99811.08
2024-03-22T18:06:07.890Z,99809.01
2024-03-22T18:08:35.171Z,99814.23
2024-03-22T18:11:02.394Z,99808.21
2024-03-22T18:13:32.375Z,99807.09
2024-03-22T18:15:59.532Z,99805.23
2024-03-22T18:18:29.053Z,99803.08
2024-03-22T18:20:57.048Z,99804.23
2024-03-22T18:23:24.800Z,99806.70
2024-03-22T18:25:54.089Z,99804.33
2024-03-22T18:28:23.071Z,99799.96
2024-03-22T18:30:50.145Z,99799.58
2024-03-22T18:33:17.361Z,99797.80
2024-03-22T18:35:45.961Z,99796.25
2024-03-22T18:38:13.166Z,99794.02
2024-03-22T18:40:40.405Z,99787.41
2024-03-22T18:43:07.694Z,99788.91
2024-03-22T18:45:34.963Z,99785.37
2024-03-22T18:48:02.319Z,99789.36
2024-03-22T18:50:29.592Z,99790.48
2024-03-22T18:52:56.738Z,99788.95
2024-03-22T18:55:23.731Z,99783.32
2024-03-22T18:57:50.830Z,99781.80
2024-03-22T19:00:21.032Z,99782.98
2024-03-22T19:02:48.184Z,99780.65
2024-03-22T19:05:15.186Z,99773.65
2024-03-22T19:07:42.357Z,99777.01
2024-03-22T19:10:09.357Z,99775.40
2024-03-22T19:12:36.327Z,99775.10
2024-03-22T19:15:03.899Z,99774.91
2024-03-22T19:17:31.012Z,99774.02
2024-03-22T19:19:58.139Z,99768.20
2024-03-22T19:22:25.228Z,99770.33
2024-03-22T19:24:53.874Z,99769.84
2024-03-22T19:27:20.934Z,99772.20
2024-03-22T19:29:48.338Z,99767.67
2024-03-22T19:32:16.609Z,99763.77
2024-03-22T19:34:43.647Z,99763.27
2024-03-22T19:37:10.705Z,99770.01
2024-03-22T19:39:38.057Z,99773.30
2024-03-22T19:42:05.242Z,99768.52
2024-03-22T19:44:33.689Z,99763.58
2024-03-22T19:47:00.902Z,99757.36
2024-03-22T19:49:29.141Z,99752.73
2024-03-22T19:51:56.333Z,99755.16
2024-03-22T19:54:23.948Z,99744.47
2024-03-22T19:56:50.958Z,99744.34
2024-03-22T19:59:18.080Z,99749.05
2024-03-22T20:01:50.507Z,99752.60
2024-03-22T20:04:17.674Z,99756.81
2024-03-22T20:06:45.499Z,99753.56
2024-03-22T20:09:14.241Z,99754.77
2024-03-22T20:11:42.111Z,99753.42
2024-03-22T20:14:10.452Z,99747.18
2024-03-22T20:16:37.840Z,99735.89
2024-03-22T20:19:05.216Z,99733.36
2024-03-22T20:21:32.327Z,99734.27
2024-03-22T20:24:01.393Z,99732.88
2024-03-22T20:26:28.917Z,99733.52
2024-03-22T20:28:58.878Z,99737.45
2024-03-22T20:31:26.113Z,99738.55
2024-03-22T20:33:53.233Z,99737.02
2024-03-22T20:36:20.473Z,99741.51
2024-03-22T20:38:47.549Z,99743.75
2024-03-22T20:41:14.687Z,99736.00
2024-03-22T20:43:44.347Z,99736.61
2024-03-22T20:46:11.336Z,99732.70
2024-03-22T20:48:38.260Z,99733.13
2024-03-22T20:51:05.436Z,99735.55
2024-03-22T20:53:32.370Z,99736.61
2024-03-22T20:55:59.317Z,99736.42
2024-03-22T20:58:26.689Z,99740.70
2024-03-22T21:00:54.462Z,99739.52
2024-03-22T21:03:21.558Z,99737.73
2024-03-22T21:05:48.581Z,99740.96
2024-03-22T21:08:15.728Z,99738.94
2024-03-22T21:10:42.888Z,99735.11
2024-03-22T21:13:09.802Z,99732.98
2024-03-22T21:15:37.691Z,99729.56
2024-03-22T21:18:05.464Z,99726.96
2024-03-22T21:20:34.282Z,99724.36
2024-03-22T21:23:01.234Z,99717.62
2024-03-22T21:25:28.342Z,99713.91
2024-03-22T21:27:57.535Z,99712.45
2024-03-22T21:30:24.662Z,99713.41
2024-03-22T21:32:53.041Z,99711.52
2024-03-22T21:35:20.301Z,99707.06
2024-03-22T21:37:47.269Z,99701.56
2024-03-22T21:40:14.545Z,99703.92
2024-03-22T21:42:43.685Z,99701.24
2024-03-22T21:45:10.736Z,99696.20
2024-03-22T21:47:41.132Z,99694.07
2024-03-22T21:50:11.460Z,99694.08
2024-03-22T21:52:38.710Z,99692.91
2024-03-22T21:55:06.399Z,99691.54
2024-03-22T21:57:33.642Z,99689.55
2024-03-22T22:00:04.478Z,99689.30
2024-03-22T22:02:34.668Z,99683.88
2024-03-22T22:05:02.015Z,99679.23
2024-03-22T22:07:29.146Z,99678.91
2024-03-22T22:09:56.196Z,99675.12
2024-03-22T22:12:23.621Z,99674.57
2024-03-22T22:14:50.835Z,99670.90
2024-03-22T22:17:17.812Z,99672.17
2024-03-22T22:19:45.264Z,99670.05
2024-03-22T22:22:12.304Z,99663.92
2024-03-22T22:24:39.311Z,99660.83
2024-03-22T22:27:06.454Z,99655.36
2024-03-22T22:29:33.364Z,99650.89
2024-03-22T22:32:00.879Z,99646.41
2024-03-22T22:34:28.002Z,99639.29
2024-03-22T22:36:55.135Z,99634.08
2024-03-22T22:39:22.112Z,99628.67
2024-03-22T22:41:49.719Z,99629.34
2024-03-22T22:44:16.839Z,99624.63
2024-03-22T22:46:43.775Z,99630.48
2024-03-22T22:49:10.757Z,99622.85
2024-03-22T22:51:37.939Z,99622.58
2024-03-22T22:54:04.886Z,99623.52
2024-03-22T22:56:33.532Z,99625.17
2024-03-22T22:59:00.519Z,99623.81
2024-03-22T23:01:27.595Z,99629.55
2024-03-22T23:03:54.802Z,99627.11
2024-03-22T23:06:22.622Z,99623.35
2024-03-22T23:08:49.937Z,99623.27
2024-03-22T23:11:16.907Z,99619.27
2024-03-22T23:13:44.029Z,99617.49
2024-03-22T23:16:11.200Z,99617.58
2024-03-22T23:18:38.260Z,99616.95
2024-03-22T23:21:05.190Z,99616.28
2024-03-22T23:23:32.219Z,99616.36
2024-03-22T23:25:59.546Z,99606.53
2024-03-22T23:28:26.554Z,99604.27
2024-03-22T23:30:54.181Z,99597.29
2024-03-22T23:33:21.157Z,99598.86
2024-03-22T23:35:48.142Z,99596.16
2024-03-22T23:38:15.218Z,99593.09
2024-03-22T23:40:42.406Z,99590.25
2024-03-22T23:43:09.352Z,99589.94
2024-03-22T23:45:36.402Z,99596.54
2024-03-22T23:48:03.437Z,99594.48
2024-03-22T23:50:30.887Z,99595.08
2024-03-22T23:52:57.896Z,99590.16
2024-03-22T23:55:25.073Z,99588.65
2024-03-22T23:57:52.178Z,99584.14
